sensor_id;sensor_type;location;lat;lon;timestamp;P1;durP1;ratioP1;P2;durP2;ratioP2
15063;SDS011;7631;52.088;5.088;2023-05-23T00:02:01;10.20;;;7.30;;
15063;SDS011;7631;52.088;5.088;2023-05-23T00:04:31;9.73;;;7.17;;
15063;SDS011;7631;52.088;5.088;2023-05-23T00:06:57;8.53;;;7.17;;
15063;SDS011;7631;52.088;5.088;2023-05-23T00:09:22;7.87;;;6.80;;
15063;SDS011;7631;52.088;5.088;2023-05-23T00:11:48;10.33;;;7.40;;
15063;SDS011;7631;52.088;5.088;2023-05-23T00:14:13;8.03;;;7.03;;
15063;SDS011;7631;52.088;5.088;2023-05-23T00:16:39;7.83;;;6.97;;
15063;SDS011;7631;52.088;5.088;2023-05-23T00:19:05;10.73;;;6.97;;
15063;SDS011;7631;52.088;5.088;2023-05-23T00:21:30;9.07;;;7.20;;
15063;SDS011;7631;52.088;5.088;2023-05-23T00:23:57;8.97;;;7.10;;
15063;SDS011;7631;52.088;5.088;2023-05-23T00:26:22;8.73;;;7.57;;
15063;SDS011;7631;52.088;5.088;2023-05-23T00:28:48;9.60;;;6.90;;
15063;SDS011;7631;52.088;5.088;2023-05-23T00:31:13;10.10;;;7.77;;
15063;SDS011;7631;52.088;5.088;2023-05-23T00:33:38;10.20;;;7.20;;
15063;SDS011;7631;52.088;5.088;2023-05-23T00:36:03;8.80;;;6.73;;
15063;SDS011;7631;52.088;5.088;2023-05-23T00:38:30;10.07;;;7.63;;
15063;SDS011;7631;52.088;5.088;2023-05-23T00:40:55;11.33;;;8.17;;
15063;SDS011;7631;52.088;5.088;2023-05-23T00:43:20;10.17;;;7.90;;
15063;SDS011;7631;52.088;5.088;2023-05-23T00:45:47;10.40;;;8.20;;
15063;SDS011;7631;52.088;5.088;2023-05-23T00:48:12;11.83;;;8.03;;
15063;SDS011;7631;52.088;5.088;2023-05-23T00:50:38;12.67;;;7.63;;
15063;SDS011;7631;52.088;5.088;2023-05-23T00:53:04;13.90;;;7.80;;
15063;SDS011;7631;52.088;5.088;2023-05-23T00:55:29;10.60;;;7.80;;
15063;SDS011;7631;52.088;5.088;2023-05-23T00:57:54;10.37;;;7.67;;
15063;SDS011;7631;52.088;5.088;2023-05-23T01:00:21;9.73;;;7.50;;
15063;SDS011;7631;52.088;5.088;2023-05-23T01:02:47;9.20;;;7.40;;
15063;SDS011;7631;52.088;5.088;2023-05-23T01:05:15;9.17;;;7.80;;
15063;SDS011;7631;52.088;5.088;2023-05-23T01:07:44;9.53;;;7.33;;
15063;SDS011;7631;52.088;5.088;2023-05-23T01:10:09;9.23;;;6.97;;
15063;SDS011;7631;52.088;5.088;2023-05-23T01:15:13;10.57;;;7.57;;
15063;SDS011;7631;52.088;5.088;2023-05-23T01:17:49;9.60;;;7.07;;
15063;SDS011;7631;52.088;5.088;2023-05-23T01:20:18;8.77;;;7.00;;
15063;SDS011;7631;52.088;5.088;2023-05-23T01:22:53;9.23;;;6.87;;
15063;SDS011;7631;52.088;5.088;2023-05-23T01:28:00;7.10;;;6.10;;
15063;SDS011;7631;52.088;5.088;2023-05-23T01:30:26;9.93;;;5.90;;
15063;SDS011;7631;52.088;5.088;2023-05-23T01:32:54;8.57;;;6.83;;
15063;SDS011;7631;52.088;5.088;2023-05-23T01:35:24;7.50;;;6.00;;
15063;SDS011;7631;52.088;5.088;2023-05-23T01:37:52;7.40;;;5.73;;
15063;SDS011;7631;52.088;5.088;2023-05-23T01:40:18;6.90;;;5.67;;
15063;SDS011;7631;52.088;5.088;2023-05-23T01:42:43;8.57;;;6.10;;
15063;SDS011;7631;52.088;5.088;2023-05-23T01:45:09;6.70;;;5.97;;
15063;SDS011;7631;52.088;5.088;2023-05-23T01:47:34;6.60;;;5.43;;
15063;SDS011;7631;52.088;5.088;2023-05-23T01:49:59;9.67;;;6.33;;
15063;SDS011;7631;52.088;5.088;2023-05-23T01:52:26;7.93;;;6.07;;
15063;SDS011;7631;52.088;5.088;2023-05-23T01:54:52;7.90;;;5.53;;
15063;SDS011;7631;52.088;5.088;2023-05-23T01:57:18;6.50;;;5.50;;
15063;SDS011;7631;52.088;5.088;2023-05-23T01:59:43;7.70;;;5.77;;
15063;SDS011;7631;52.088;5.088;2023-05-23T02:02:08;6.50;;;5.27;;
15063;SDS011;7631;52.088;5.088;2023-05-23T02:04:34;8.67;;;5.20;;
15063;SDS011;7631;52.088;5.088;2023-05-23T02:06:59;7.47;;;5.40;;
15063;SDS011;7631;52.088;5.088;2023-05-23T02:09:24;7.43;;;5.20;;
15063;SDS011;7631;52.088;5.088;2023-05-23T02:11:50;7.17;;;5.00;;
15063;SDS011;7631;52.088;5.088;2023-05-23T02:14:15;7.60;;;5.80;;
15063;SDS011;7631;52.088;5.088;2023-05-23T02:16:42;6.20;;;5.10;;
15063;SDS011;7631;52.088;5.088;2023-05-23T02:19:07;7.00;;;5.27;;
15063;SDS011;7631;52.088;5.088;2023-05-23T02:21:32;7.00;;;5.47;;
15063;SDS011;7631;52.088;5.088;2023-05-23T02:23:57;5.87;;;5.07;;
15063;SDS011;7631;52.088;5.088;2023-05-23T02:26:23;8.50;;;6.17;;
15063;SDS011;7631;52.088;5.088;2023-05-23T02:28:48;6.83;;;5.80;;
15063;SDS011;7631;52.088;5.088;2023-05-23T02:31:13;7.37;;;5.03;;
15063;SDS011;7631;52.088;5.088;2023-05-23T02:33:39;7.67;;;5.47;;
15063;SDS011;7631;52.088;5.088;2023-05-23T02:36:04;6.73;;;5.20;;
15063;SDS011;7631;52.088;5.088;2023-05-23T02:38:29;7.23;;;5.13;;
15063;SDS011;7631;52.088;5.088;2023-05-23T02:40:55;6.60;;;4.83;;
15063;SDS011;7631;52.088;5.088;2023-05-23T02:43:21;6.70;;;5.40;;
15063;SDS011;7631;52.088;5.088;2023-05-23T02:45:46;9.33;;;5.47;;
15063;SDS011;7631;52.088;5.088;2023-05-23T02:48:11;7.23;;;5.17;;
15063;SDS011;7631;52.088;5.088;2023-05-23T02:50:37;8.93;;;5.67;;
15063;SDS011;7631;52.088;5.088;2023-05-23T02:53:02;8.03;;;5.57;;
15063;SDS011;7631;52.088;5.088;2023-05-23T02:55:27;7.77;;;5.47;;
15063;SDS011;7631;52.088;5.088;2023-05-23T02:57:53;7.17;;;5.93;;
15063;SDS011;7631;52.088;5.088;2023-05-23T03:00:18;7.47;;;5.60;;
15063;SDS011;7631;52.088;5.088;2023-05-23T03:02:43;7.13;;;5.80;;
15063;SDS011;7631;52.088;5.088;2023-05-23T03:05:09;9.47;;;5.83;;
15063;SDS011;7631;52.088;5.088;2023-05-23T03:07:34;7.47;;;5.57;;
15063;SDS011;7631;52.088;5.088;2023-05-23T03:10:00;9.27;;;6.40;;
15063;SDS011;7631;52.088;5.088;2023-05-23T03:12:28;7.27;;;5.53;;
15063;SDS011;7631;52.088;5.088;2023-05-23T03:14:53;9.30;;;6.33;;
15063;SDS011;7631;52.088;5.088;2023-05-23T03:17:19;11.80;;;6.30;;
15063;SDS011;7631;52.088;5.088;2023-05-23T03:19:44;9.97;;;6.47;;
15063;SDS011;7631;52.088;5.088;2023-05-23T03:22:09;12.47;;;6.97;;
15063;SDS011;7631;52.088;5.088;2023-05-23T03:24:34;9.67;;;6.47;;
15063;SDS011;7631;52.088;5.088;2023-05-23T03:27:00;8.53;;;6.07;;
15063;SDS011;7631;52.088;5.088;2023-05-23T03:29:25;12.20;;;6.77;;
15063;SDS011;7631;52.088;5.088;2023-05-23T03:31:51;9.57;;;5.90;;
15063;SDS011;7631;52.088;5.088;2023-05-23T03:34:16;9.73;;;6.53;;
15063;SDS011;7631;52.088;5.088;2023-05-23T03:36:41;10.47;;;7.00;;
15063;SDS011;7631;52.088;5.088;2023-05-23T03:39:07;10.53;;;6.80;;
15063;SDS011;7631;52.088;5.088;2023-05-23T03:41:32;10.23;;;6.90;;
15063;SDS011;7631;52.088;5.088;2023-05-23T03:43:57;12.57;;;6.93;;
15063;SDS011;7631;52.088;5.088;2023-05-23T03:46:22;10.67;;;7.30;;
15063;SDS011;7631;52.088;5.088;2023-05-23T03:48:47;10.93;;;7.20;;
15063;SDS011;7631;52.088;5.088;2023-05-23T03:51:13;11.23;;;6.50;;
15063;SDS011;7631;52.088;5.088;2023-05-23T03:53:38;12.67;;;6.60;;
15063;SDS011;7631;52.088;5.088;2023-05-23T03:56:03;10.13;;;6.47;;
15063;SDS011;7631;52.088;5.088;2023-05-23T03:58:28;10.87;;;6.63;;
15063;SDS011;7631;52.088;5.088;2023-05-23T04:00:54;10.70;;;6.57;;
15063;SDS011;7631;52.088;5.088;2023-05-23T04:03:19;10.03;;;6.60;;
15063;SDS011;7631;52.088;5.088;2023-05-23T04:05:44;12.50;;;6.90;;
15063;SDS011;7631;52.088;5.088;2023-05-23T04:08:10;10.40;;;6.73;;
15063;SDS011;7631;52.088;5.088;2023-05-23T04:10:35;9.60;;;6.43;;
15063;SDS011;7631;52.088;5.088;2023-05-23T04:13:00;9.93;;;5.87;;
15063;SDS011;7631;52.088;5.088;2023-05-23T04:15:25;10.47;;;6.33;;
15063;SDS011;7631;52.088;5.088;2023-05-23T04:17:52;11.47;;;6.10;;
15063;SDS011;7631;52.088;5.088;2023-05-23T04:20:17;8.87;;;5.57;;
15063;SDS011;7631;52.088;5.088;2023-05-23T04:22:42;11.17;;;5.90;;
15063;SDS011;7631;52.088;5.088;2023-05-23T04:25:07;9.87;;;5.73;;
15063;SDS011;7631;52.088;5.088;2023-05-23T04:27:33;8.07;;;5.17;;
15063;SDS011;7631;52.088;5.088;2023-05-23T04:29:58;8.93;;;5.60;;
15063;SDS011;7631;52.088;5.088;2023-05-23T04:32:24;9.60;;;5.33;;
15063;SDS011;7631;52.088;5.088;2023-05-23T04:34:50;11.30;;;5.13;;
15063;SDS011;7631;52.088;5.088;2023-05-23T04:37:16;7.93;;;4.63;;
15063;SDS011;7631;52.088;5.088;2023-05-23T04:39:41;9.53;;;4.67;;
15063;SDS011;7631;52.088;5.088;2023-05-23T04:42:06;7.67;;;4.93;;
15063;SDS011;7631;52.088;5.088;2023-05-23T04:44:31;8.23;;;4.77;;
15063;SDS011;7631;52.088;5.088;2023-05-23T04:46:57;9.00;;;4.40;;
15063;SDS011;7631;52.088;5.088;2023-05-23T04:49:22;7.80;;;4.80;;
15063;SDS011;7631;52.088;5.088;2023-05-23T04:51:48;7.33;;;4.60;;
15063;SDS011;7631;52.088;5.088;2023-05-23T04:54:13;8.07;;;4.50;;
15063;SDS011;7631;52.088;5.088;2023-05-23T04:56:38;7.83;;;4.20;;
15063;SDS011;7631;52.088;5.088;2023-05-23T04:59:04;7.33;;;4.77;;
15063;SDS011;7631;52.088;5.088;2023-05-23T05:01:29;8.47;;;4.20;;
15063;SDS011;7631;52.088;5.088;2023-05-23T05:03:55;9.07;;;4.53;;
15063;SDS011;7631;52.088;5.088;2023-05-23T05:06:21;7.33;;;4.20;;
15063;SDS011;7631;52.088;5.088;2023-05-23T05:08:46;6.50;;;4.20;;
15063;SDS011;7631;52.088;5.088;2023-05-23T05:11:11;5.43;;;4.30;;
15063;SDS011;7631;52.088;5.088;2023-05-23T05:13:36;8.63;;;4.23;;
15063;SDS011;7631;52.088;5.088;2023-05-23T05:16:02;9.40;;;3.43;;
15063;SDS011;7631;52.088;5.088;2023-05-23T05:18:27;6.60;;;4.20;;
15063;SDS011;7631;52.088;5.088;2023-05-23T05:20:53;7.10;;;4.03;;
15063;SDS011;7631;52.088;5.088;2023-05-23T05:23:18;6.07;;;3.93;;
15063;SDS011;7631;52.088;5.088;2023-05-23T05:25:43;7.83;;;4.77;;
15063;SDS011;7631;52.088;5.088;2023-05-23T05:28:09;6.70;;;4.40;;
15063;SDS011;7631;52.088;5.088;2023-05-23T05:30:34;7.33;;;4.40;;
15063;SDS011;7631;52.088;5.088;2023-05-23T05:33:03;6.83;;;4.57;;
15063;SDS011;7631;52.088;5.088;2023-05-23T05:35:29;5.87;;;3.70;;
15063;SDS011;7631;52.088;5.088;2023-05-23T05:37:55;6.10;;;3.90;;
15063;SDS011;7631;52.088;5.088;2023-05-23T05:40:20;8.37;;;4.10;;
15063;SDS011;7631;52.088;5.088;2023-05-23T05:42:46;9.27;;;4.63;;
15063;SDS011;7631;52.088;5.088;2023-05-23T05:45:11;7.23;;;4.20;;
15063;SDS011;7631;52.088;5.088;2023-05-23T05:47:36;8.37;;;4.67;;
15063;SDS011;7631;52.088;5.088;2023-05-23T05:50:03;8.07;;;4.50;;
15063;SDS011;7631;52.088;5.088;2023-05-23T05:52:28;7.20;;;4.03;;
15063;SDS011;7631;52.088;5.088;2023-05-23T05:54:53;8.53;;;4.13;;
15063;SDS011;7631;52.088;5.088;2023-05-23T05:57:19;7.57;;;4.13;;
15063;SDS011;7631;52.088;5.088;2023-05-23T05:59:44;5.70;;;4.37;;
15063;SDS011;7631;52.088;5.088;2023-05-23T06:02:10;6.93;;;4.23;;
15063;SDS011;7631;52.088;5.088;2023-05-23T06:04:35;8.07;;;4.53;;
15063;SDS011;7631;52.088;5.088;2023-05-23T06:07:01;6.87;;;4.73;;
15063;SDS011;7631;52.088;5.088;2023-05-23T06:09:26;8.73;;;4.67;;
15063;SDS011;7631;52.088;5.088;2023-05-23T06:11:51;7.50;;;4.10;;
15063;SDS011;7631;52.088;5.088;2023-05-23T06:14:16;7.27;;;4.67;;
15063;SDS011;7631;52.088;5.088;2023-05-23T06:16:41;8.93;;;4.70;;
15063;SDS011;7631;52.088;5.088;2023-05-23T06:19:06;8.97;;;4.60;;
15063;SDS011;7631;52.088;5.088;2023-05-23T06:21:32;8.43;;;5.17;;
15063;SDS011;7631;52.088;5.088;2023-05-23T06:23:57;7.83;;;4.87;;
15063;SDS011;7631;52.088;5.088;2023-05-23T06:26:22;8.10;;;4.73;;
15063;SDS011;7631;52.088;5.088;2023-05-23T06:28:47;7.53;;;5.20;;
15063;SDS011;7631;52.088;5.088;2023-05-23T06:31:13;8.37;;;5.30;;
15063;SDS011;7631;52.088;5.088;2023-05-23T06:33:38;10.37;;;5.93;;
15063;SDS011;7631;52.088;5.088;2023-05-23T06:36:03;9.13;;;4.80;;
15063;SDS011;7631;52.088;5.088;2023-05-23T06:38:30;8.47;;;4.90;;
15063;SDS011;7631;52.088;5.088;2023-05-23T06:40:57;7.87;;;4.43;;
15063;SDS011;7631;52.088;5.088;2023-05-23T06:43:22;7.70;;;4.53;;
15063;SDS011;7631;52.088;5.088;2023-05-23T06:45:48;8.40;;;5.13;;
15063;SDS011;7631;52.088;5.088;2023-05-23T06:48:13;6.87;;;4.67;;
15063;SDS011;7631;52.088;5.088;2023-05-23T06:50:39;7.33;;;4.70;;
15063;SDS011;7631;52.088;5.088;2023-05-23T06:53:04;9.37;;;4.80;;
15063;SDS011;7631;52.088;5.088;2023-05-23T06:55:30;7.80;;;4.13;;
15063;SDS011;7631;52.088;5.088;2023-05-23T06:57:57;9.90;;;4.93;;
15063;SDS011;7631;52.088;5.088;2023-05-23T07:00:23;8.67;;;4.23;;
15063;SDS011;7631;52.088;5.088;2023-05-23T07:02:48;5.60;;;3.80;;
15063;SDS011;7631;52.088;5.088;2023-05-23T07:05:13;7.67;;;4.93;;
15063;SDS011;7631;52.088;5.088;2023-05-23T07:07:39;7.30;;;4.83;;
15063;SDS011;7631;52.088;5.088;2023-05-23T07:10:05;6.97;;;3.80;;
15063;SDS011;7631;52.088;5.088;2023-05-23T07:12:30;6.87;;;3.70;;
15063;SDS011;7631;52.088;5.088;2023-05-23T07:14:55;8.00;;;4.10;;
15063;SDS011;7631;52.088;5.088;2023-05-23T07:17:20;6.90;;;3.33;;
15063;SDS011;7631;52.088;5.088;2023-05-23T07:19:46;5.33;;;3.20;;
15063;SDS011;7631;52.088;5.088;2023-05-23T07:22:12;5.00;;;3.30;;
15063;SDS011;7631;52.088;5.088;2023-05-23T07:24:37;6.70;;;3.50;;
15063;SDS011;7631;52.088;5.088;2023-05-23T07:27:02;6.77;;;3.47;;
15063;SDS011;7631;52.088;5.088;2023-05-23T07:29:27;6.10;;;3.33;;
15063;SDS011;7631;52.088;5.088;2023-05-23T07:31:53;6.60;;;3.37;;
15063;SDS011;7631;52.088;5.088;2023-05-23T07:34:18;7.43;;;3.13;;
15063;SDS011;7631;52.088;5.088;2023-05-23T07:36:43;6.40;;;3.30;;
15063;SDS011;7631;52.088;5.088;2023-05-23T07:39:09;7.13;;;2.93;;
15063;SDS011;7631;52.088;5.088;2023-05-23T07:41:34;6.40;;;3.00;;
15063;SDS011;7631;52.088;5.088;2023-05-23T07:44:00;6.63;;;3.33;;
15063;SDS011;7631;52.088;5.088;2023-05-23T07:46:25;5.10;;;2.70;;
15063;SDS011;7631;52.088;5.088;2023-05-23T07:48:50;6.93;;;3.00;;
15063;SDS011;7631;52.088;5.088;2023-05-23T07:51:15;7.27;;;3.00;;
15063;SDS011;7631;52.088;5.088;2023-05-23T07:53:42;5.13;;;2.83;;
15063;SDS011;7631;52.088;5.088;2023-05-23T07:56:08;8.43;;;3.10;;
15063;SDS011;7631;52.088;5.088;2023-05-23T07:58:33;7.47;;;2.90;;
15063;SDS011;7631;52.088;5.088;2023-05-23T08:00:58;6.90;;;2.77;;
15063;SDS011;7631;52.088;5.088;2023-05-23T08:03:23;6.07;;;2.70;;
15063;SDS011;7631;52.088;5.088;2023-05-23T08:05:49;8.63;;;3.00;;
15063;SDS011;7631;52.088;5.088;2023-05-23T08:08:15;6.50;;;2.73;;
15063;SDS011;7631;52.088;5.088;2023-05-23T08:10:40;7.10;;;2.60;;
15063;SDS011;7631;52.088;5.088;2023-05-23T08:13:05;8.00;;;3.23;;
15063;SDS011;7631;52.088;5.088;2023-05-23T08:15:31;5.47;;;2.37;;
15063;SDS011;7631;52.088;5.088;2023-05-23T08:17:57;5.03;;;2.67;;
15063;SDS011;7631;52.088;5.088;2023-05-23T08:20:22;6.57;;;2.87;;
15063;SDS011;7631;52.088;5.088;2023-05-23T08:22:54;8.03;;;2.90;;
15063;SDS011;7631;52.088;5.088;2023-05-23T08:25:22;7.40;;;2.87;;
15063;SDS011;7631;52.088;5.088;2023-05-23T08:27:48;8.33;;;3.30;;
15063;SDS011;7631;52.088;5.088;2023-05-23T08:30:13;7.97;;;2.80;;
15063;SDS011;7631;52.088;5.088;2023-05-23T08:32:39;8.97;;;3.17;;
15063;SDS011;7631;52.088;5.088;2023-05-23T08:35:04;9.20;;;3.00;;
15063;SDS011;7631;52.088;5.088;2023-05-23T08:37:30;7.87;;;2.77;;
15063;SDS011;7631;52.088;5.088;2023-05-23T08:39:55;8.07;;;2.93;;
15063;SDS011;7631;52.088;5.088;2023-05-23T08:42:20;9.33;;;2.70;;
15063;SDS011;7631;52.088;5.088;2023-05-23T08:44:45;6.33;;;2.77;;
15063;SDS011;7631;52.088;5.088;2023-05-23T08:47:11;8.67;;;3.20;;
15063;SDS011;7631;52.088;5.088;2023-05-23T08:49:38;8.03;;;2.83;;
15063;SDS011;7631;52.088;5.088;2023-05-23T08:52:03;8.37;;;2.97;;
15063;SDS011;7631;52.088;5.088;2023-05-23T08:54:29;9.73;;;2.90;;
15063;SDS011;7631;52.088;5.088;2023-05-23T08:56:54;8.70;;;2.93;;
15063;SDS011;7631;52.088;5.088;2023-05-23T08:59:20;6.80;;;3.23;;
15063;SDS011;7631;52.088;5.088;2023-05-23T09:01:46;9.03;;;2.80;;
15063;SDS011;7631;52.088;5.088;2023-05-23T09:04:12;7.73;;;2.90;;
15063;SDS011;7631;52.088;5.088;2023-05-23T09:06:37;6.70;;;2.87;;
15063;SDS011;7631;52.088;5.088;2023-05-23T09:09:02;6.87;;;2.50;;
15063;SDS011;7631;52.088;5.088;2023-05-23T09:11:28;7.37;;;2.47;;
15063;SDS011;7631;52.088;5.088;2023-05-23T09:13:53;9.63;;;3.23;;
15063;SDS011;7631;52.088;5.088;2023-05-23T09:16:20;6.57;;;2.47;;
15063;SDS011;7631;52.088;5.088;2023-05-23T09:18:45;6.87;;;3.20;;
15063;SDS011;7631;52.088;5.088;2023-05-23T09:21:11;6.33;;;2.60;;
15063;SDS011;7631;52.088;5.088;2023-05-23T09:23:37;7.73;;;3.00;;
15063;SDS011;7631;52.088;5.088;2023-05-23T09:26:06;7.00;;;3.00;;
15063;SDS011;7631;52.088;5.088;2023-05-23T09:28:32;8.47;;;3.47;;
15063;SDS011;7631;52.088;5.088;2023-05-23T09:31:00;8.60;;;2.90;;
15063;SDS011;7631;52.088;5.088;2023-05-23T09:36:03;7.53;;;2.80;;
15063;SDS011;7631;52.088;5.088;2023-05-23T09:38:29;9.93;;;2.93;;
15063;SDS011;7631;52.088;5.088;2023-05-23T09:40:54;7.47;;;2.60;;
15063;SDS011;7631;52.088;5.088;2023-05-23T09:43:21;7.10;;;2.90;;
15063;SDS011;7631;52.088;5.088;2023-05-23T09:45:47;6.57;;;3.13;;
15063;SDS011;7631;52.088;5.088;2023-05-23T09:48:12;6.40;;;2.50;;
15063;SDS011;7631;52.088;5.088;2023-05-23T09:50:38;8.00;;;3.07;;
15063;SDS011;7631;52.088;5.088;2023-05-23T09:53:03;8.17;;;3.13;;
15063;SDS011;7631;52.088;5.088;2023-05-23T09:55:29;6.67;;;2.87;;
15063;SDS011;7631;52.088;5.088;2023-05-23T09:57:54;7.97;;;3.20;;
15063;SDS011;7631;52.088;5.088;2023-05-23T10:00:22;6.90;;;2.77;;
15063;SDS011;7631;52.088;5.088;2023-05-23T10:03:05;7.33;;;3.00;;
15063;SDS011;7631;52.088;5.088;2023-05-23T10:05:33;7.90;;;2.80;;
15063;SDS011;7631;52.088;5.088;2023-05-23T10:07:59;6.13;;;2.67;;
15063;SDS011;7631;52.088;5.088;2023-05-23T10:10:25;7.97;;;3.00;;
15063;SDS011;7631;52.088;5.088;2023-05-23T10:12:53;5.87;;;2.60;;
15063;SDS011;7631;52.088;5.088;2023-05-23T10:15:20;5.17;;;2.57;;
15063;SDS011;7631;52.088;5.088;2023-05-23T10:20:11;7.57;;;3.00;;
15063;SDS011;7631;52.088;5.088;2023-05-23T10:22:38;7.20;;;2.90;;
15063;SDS011;7631;52.088;5.088;2023-05-23T10:25:04;5.10;;;2.33;;
15063;SDS011;7631;52.088;5.088;2023-05-23T10:27:30;6.13;;;2.83;;
15063;SDS011;7631;52.088;5.088;2023-05-23T10:29:56;5.40;;;2.43;;
15063;SDS011;7631;52.088;5.088;2023-05-23T10:32:22;7.17;;;2.70;;
15063;SDS011;7631;52.088;5.088;2023-05-23T10:34:56;5.63;;;2.60;;
15063;SDS011;7631;52.088;5.088;2023-05-23T10:37:28;6.90;;;2.90;;
15063;SDS011;7631;52.088;5.088;2023-05-23T10:42:34;5.07;;;2.47;;
15063;SDS011;7631;52.088;5.088;2023-05-23T10:45:18;5.83;;;2.87;;
15063;SDS011;7631;52.088;5.088;2023-05-23T10:47:43;7.03;;;2.50;;
15063;SDS011;7631;52.088;5.088;2023-05-23T10:50:12;4.97;;;2.60;;
15063;SDS011;7631;52.088;5.088;2023-05-23T10:52:39;6.93;;;3.07;;
15063;SDS011;7631;52.088;5.088;2023-05-23T10:55:11;6.43;;;2.40;;
15063;SDS011;7631;52.088;5.088;2023-05-23T10:57:36;4.87;;;2.23;;
15063;SDS011;7631;52.088;5.088;2023-05-23T11:00:02;7.20;;;2.90;;
15063;SDS011;7631;52.088;5.088;2023-05-23T11:02:28;5.43;;;2.40;;
15063;SDS011;7631;52.088;5.088;2023-05-23T11:08:11;6.50;;;2.43;;
15063;SDS011;7631;52.088;5.088;2023-05-23T11:13:23;4.27;;;2.00;;
15063;SDS011;7631;52.088;5.088;2023-05-23T11:15:48;7.87;;;2.70;;
15063;SDS011;7631;52.088;5.088;2023-05-23T11:18:25;5.60;;;2.77;;
15063;SDS011;7631;52.088;5.088;2023-05-23T11:20:51;6.53;;;2.57;;
15063;SDS011;7631;52.088;5.088;2023-05-23T11:23:17;6.93;;;2.87;;
15063;SDS011;7631;52.088;5.088;2023-05-23T11:25:43;5.77;;;2.40;;
15063;SDS011;7631;52.088;5.088;2023-05-23T11:28:11;6.07;;;2.40;;
15063;SDS011;7631;52.088;5.088;2023-05-23T11:30:36;7.10;;;2.73;;
15063;SDS011;7631;52.088;5.088;2023-05-23T11:33:08;6.37;;;2.70;;
15063;SDS011;7631;52.088;5.088;2023-05-23T11:35:37;7.57;;;2.50;;
15063;SDS011;7631;52.088;5.088;2023-05-23T11:38:03;7.30;;;2.50;;
15063;SDS011;7631;52.088;5.088;2023-05-23T11:42:55;7.07;;;2.57;;
15063;SDS011;7631;52.088;5.088;2023-05-23T11:45:23;5.30;;;2.60;;
15063;SDS011;7631;52.088;5.088;2023-05-23T11:47:49;4.73;;;2.40;;
15063;SDS011;7631;52.088;5.088;2023-05-23T11:50:14;5.60;;;2.50;;
15063;SDS011;7631;52.088;5.088;2023-05-23T11:52:40;7.77;;;2.80;;
15063;SDS011;7631;52.088;5.088;2023-05-23T11:55:08;6.97;;;2.30;;
15063;SDS011;7631;52.088;5.088;2023-05-23T11:57:37;6.50;;;2.30;;
15063;SDS011;7631;52.088;5.088;2023-05-23T12:00:02;6.10;;;2.50;;
15063;SDS011;7631;52.088;5.088;2023-05-23T12:02:29;6.87;;;2.70;;
15063;SDS011;7631;52.088;5.088;2023-05-23T12:04:54;6.87;;;2.43;;
15063;SDS011;7631;52.088;5.088;2023-05-23T12:07:19;5.87;;;2.27;;
15063;SDS011;7631;52.088;5.088;2023-05-23T12:09:45;4.80;;;2.33;;
15063;SDS011;7631;52.088;5.088;2023-05-23T12:12:11;6.40;;;2.50;;
15063;SDS011;7631;52.088;5.088;2023-05-23T12:14:36;7.37;;;2.47;;
15063;SDS011;7631;52.088;5.088;2023-05-23T12:17:08;5.47;;;2.40;;
15063;SDS011;7631;52.088;5.088;2023-05-23T12:19:34;6.00;;;2.47;;
15063;SDS011;7631;52.088;5.088;2023-05-23T12:22:04;6.57;;;2.03;;
15063;SDS011;7631;52.088;5.088;2023-05-23T12:24:30;4.67;;;2.10;;
15063;SDS011;7631;52.088;5.088;2023-05-23T12:26:58;6.63;;;2.47;;
15063;SDS011;7631;52.088;5.088;2023-05-23T12:29:31;4.50;;;2.23;;
15063;SDS011;7631;52.088;5.088;2023-05-23T12:31:57;6.87;;;2.47;;
15063;SDS011;7631;52.088;5.088;2023-05-23T12:34:23;7.57;;;2.63;;
15063;SDS011;7631;52.088;5.088;2023-05-23T12:36:48;6.27;;;2.30;;
15063;SDS011;7631;52.088;5.088;2023-05-23T12:39:14;6.80;;;2.60;;
15063;SDS011;7631;52.088;5.088;2023-05-23T12:41:43;4.60;;;2.03;;
15063;SDS011;7631;52.088;5.088;2023-05-23T12:44:08;7.20;;;2.60;;
15063;SDS011;7631;52.088;5.088;2023-05-23T12:46:33;6.33;;;2.50;;
15063;SDS011;7631;52.088;5.088;2023-05-23T12:48:59;5.03;;;2.37;;
15063;SDS011;7631;52.088;5.088;2023-05-23T12:51:24;6.40;;;2.50;;
15063;SDS011;7631;52.088;5.088;2023-05-23T12:53:49;8.93;;;2.60;;
15063;SDS011;7631;52.088;5.088;2023-05-23T12:56:15;5.07;;;2.40;;
15063;SDS011;7631;52.088;5.088;2023-05-23T12:58:40;7.83;;;2.47;;
15063;SDS011;7631;52.088;5.088;2023-05-23T13:01:05;5.10;;;2.33;;
15063;SDS011;7631;52.088;5.088;2023-05-23T13:03:31;6.10;;;2.30;;
15063;SDS011;7631;52.088;5.088;2023-05-23T13:05:56;5.50;;;2.00;;
15063;SDS011;7631;52.088;5.088;2023-05-23T13:08:25;4.80;;;2.20;;
15063;SDS011;7631;52.088;5.088;2023-05-23T13:10:51;4.73;;;2.23;;
15063;SDS011;7631;52.088;5.088;2023-05-23T13:13:17;7.07;;;2.17;;
15063;SDS011;7631;52.088;5.088;2023-05-23T13:15:42;5.77;;;2.33;;
15063;SDS011;7631;52.088;5.088;2023-05-23T13:18:07;6.50;;;2.27;;
15063;SDS011;7631;52.088;5.088;2023-05-23T13:20:32;5.97;;;2.10;;
15063;SDS011;7631;52.088;5.088;2023-05-23T13:22:58;4.53;;;2.17;;
15063;SDS011;7631;52.088;5.088;2023-05-23T13:25:24;5.57;;;2.27;;
15063;SDS011;7631;52.088;5.088;2023-05-23T13:27:50;4.40;;;2.10;;
15063;SDS011;7631;52.088;5.088;2023-05-23T13:30:15;5.10;;;2.07;;
15063;SDS011;7631;52.088;5.088;2023-05-23T13:32:40;6.83;;;2.30;;
15063;SDS011;7631;52.088;5.088;2023-05-23T13:35:06;6.40;;;2.20;;
15063;SDS011;7631;52.088;5.088;2023-05-23T13:37:31;6.37;;;2.80;;
15063;SDS011;7631;52.088;5.088;2023-05-23T13:39:56;5.40;;;2.40;;
15063;SDS011;7631;52.088;5.088;2023-05-23T13:42:21;5.83;;;2.80;;
15063;SDS011;7631;52.088;5.088;2023-05-23T13:44:47;5.53;;;2.27;;
15063;SDS011;7631;52.088;5.088;2023-05-23T13:47:13;7.23;;;2.70;;
15063;SDS011;7631;52.088;5.088;2023-05-23T13:49:38;6.73;;;2.30;;
15063;SDS011;7631;52.088;5.088;2023-05-23T13:52:04;6.23;;;2.13;;
15063;SDS011;7631;52.088;5.088;2023-05-23T13:54:29;7.37;;;2.40;;
15063;SDS011;7631;52.088;5.088;2023-05-23T13:56:55;4.90;;;2.53;;
15063;SDS011;7631;52.088;5.088;2023-05-23T13:59:20;4.87;;;2.07;;
15063;SDS011;7631;52.088;5.088;2023-05-23T14:01:46;5.47;;;2.20;;
15063;SDS011;7631;52.088;5.088;2023-05-23T14:04:11;5.67;;;1.90;;
15063;SDS011;7631;52.088;5.088;2023-05-23T14:06:36;7.57;;;2.33;;
15063;SDS011;7631;52.088;5.088;2023-05-23T14:09:01;5.57;;;2.13;;
15063;SDS011;7631;52.088;5.088;2023-05-23T14:11:27;6.00;;;2.47;;
15063;SDS011;7631;52.088;5.088;2023-05-23T14:13:52;5.07;;;2.23;;
15063;SDS011;7631;52.088;5.088;2023-05-23T14:16:17;5.50;;;2.10;;
15063;SDS011;7631;52.088;5.088;2023-05-23T14:18:42;6.23;;;2.10;;
15063;SDS011;7631;52.088;5.088;2023-05-23T14:21:09;4.97;;;2.10;;
15063;SDS011;7631;52.088;5.088;2023-05-23T14:23:34;5.07;;;2.40;;
15063;SDS011;7631;52.088;5.088;2023-05-23T14:25:59;3.00;;;1.83;;
15063;SDS011;7631;52.088;5.088;2023-05-23T14:28:26;5.60;;;2.27;;
15063;SDS011;7631;52.088;5.088;2023-05-23T14:30:51;5.90;;;2.07;;
15063;SDS011;7631;52.088;5.088;2023-05-23T14:33:16;4.80;;;2.20;;
15063;SDS011;7631;52.088;5.088;2023-05-23T14:35:41;4.83;;;1.90;;
15063;SDS011;7631;52.088;5.088;2023-05-23T14:38:07;4.60;;;2.00;;
15063;SDS011;7631;52.088;5.088;2023-05-23T14:40:32;4.03;;;2.20;;
15063;SDS011;7631;52.088;5.088;2023-05-23T14:42:57;5.83;;;2.13;;
15063;SDS011;7631;52.088;5.088;2023-05-23T14:45:22;4.67;;;1.87;;
15063;SDS011;7631;52.088;5.088;2023-05-23T14:47:47;4.60;;;1.93;;
15063;SDS011;7631;52.088;5.088;2023-05-23T14:50:13;4.67;;;2.33;;
15063;SDS011;7631;52.088;5.088;2023-05-23T14:52:38;6.50;;;2.10;;
15063;SDS011;7631;52.088;5.088;2023-05-23T14:55:04;5.07;;;1.90;;
15063;SDS011;7631;52.088;5.088;2023-05-23T14:57:29;4.07;;;1.87;;
15063;SDS011;7631;52.088;5.088;2023-05-23T14:59:54;3.33;;;1.70;;
15063;SDS011;7631;52.088;5.088;2023-05-23T15:02:20;4.47;;;1.90;;
15063;SDS011;7631;52.088;5.088;2023-05-23T15:04:45;3.83;;;1.83;;
15063;SDS011;7631;52.088;5.088;2023-05-23T15:07:11;5.43;;;1.87;;
15063;SDS011;7631;52.088;5.088;2023-05-23T15:09:38;6.10;;;2.30;;
15063;SDS011;7631;52.088;5.088;2023-05-23T15:12:04;6.20;;;2.07;;
15063;SDS011;7631;52.088;5.088;2023-05-23T15:14:31;4.63;;;1.83;;